createdAt,value
2023-07-18T00:02:38.268Z,63.21
2023-07-18T00:05:42.675Z,63.77
2023-07-18T00:08:46.109Z,64.21
2023-07-18T00:11:49.245Z,64.79
2023-07-18T00:14:52.093Z,64.82
2023-07-18T00:17:55.242Z,64.99
2023-07-18T00:20:58.105Z,65.24
2023-07-18T00:24:03.998Z,66.10
2023-07-18T00:27:07.165Z,66.58
2023-07-18T00:30:14.133Z,66.93
2023-07-18T00:33:17.343Z,67.72
2023-07-18T00:36:20.176Z,67.76
2023-07-18T00:39:22.969Z,68.30
2023-07-18T00:42:26.609Z,68.14
2023-07-18T00:45:30.607Z,68.10
2023-07-18T00:48:37.142Z,68.30
2023-07-18T00:51:40.980Z,68.31
2023-07-18T00:54:51.444Z,68.71
2023-07-18T00:57:55.267Z,68.52
2023-07-18T01:00:58.651Z,68.37
2023-07-18T01:04:01.656Z,68.69
2023-07-18T01:07:06.416Z,68.63
2023-07-18T01:10:45.020Z,68.24
2023-07-18T01:13:48.698Z,68.12
2023-07-18T01:16:53.696Z,68.09
2023-07-18T01:19:57.681Z,67.89
2023-07-18T01:23:02.139Z,67.99
2023-07-18T01:26:05.629Z,67.80
2023-07-18T01:29:09.895Z,67.54
2023-07-18T01:32:12.795Z,67.26
2023-07-18T01:35:18.389Z,67.28
2023-07-18T01:38:22.311Z,67.29
2023-07-18T01:41:25.228Z,67.17
2023-07-18T01:44:28.176Z,66.89
2023-07-18T01:47:34.439Z,66.80
2023-07-18T01:50:37.314Z,66.57
2023-07-18T01:53:40.062Z,66.96
2023-07-18T01:56:43.141Z,66.67
2023-07-18T01:59:45.933Z,66.51
2023-07-18T02:02:51.787Z,66.72
2023-07-18T02:05:54.687Z,66.72
2023-07-18T02:09:00.008Z,67.74
2023-07-18T02:12:04.344Z,67.95
2023-07-18T02:15:08.008Z,68.22
2023-07-18T02:18:14.914Z,67.88
2023-07-18T02:21:18.008Z,67.30
2023-07-18T02:24:21.166Z,67.71
2023-07-18T02:27:23.912Z,68.03
2023-07-18T02:30:26.668Z,68.05
2023-07-18T02:33:31.297Z,68.10
2023-07-18T02:36:34.658Z,68.02
2023-07-18T02:39:40.031Z,67.63
2023-07-18T02:42:42.883Z,67.71
2023-07-18T02:45:46.968Z,67.24
2023-07-18T02:48:51.445Z,67.21
2023-07-18T02:51:54.519Z,67.52
2023-07-18T02:54:58.515Z,68.13
2023-07-18T02:58:02.566Z,68.58
2023-07-18T03:01:07.829Z,67.45
2023-07-18T03:04:10.790Z,67.55
2023-07-18T03:07:14.977Z,67.28
2023-07-18T03:10:18.293Z,66.80
2023-07-18T03:13:26.025Z,66.36
2023-07-18T03:16:28.811Z,66.52
2023-07-18T03:19:33.047Z,67.14
2023-07-18T03:22:37.135Z,66.50
2023-07-18T03:25:39.956Z,65.72
2023-07-18T03:28:42.734Z,65.19
2023-07-18T03:31:45.835Z,64.66
2023-07-18T03:34:48.899Z,64.00
2023-07-18T03:37:54.243Z,63.63
2023-07-18T03:41:00.049Z,62.68
2023-07-18T03:44:04.902Z,63.05
2023-07-18T03:47:20.123Z,62.87
2023-07-18T03:50:25.008Z,62.35
2023-07-18T03:53:28.965Z,62.35
2023-07-18T03:56:32.698Z,62.96
2023-07-18T03:59:35.990Z,63.12
2023-07-18T04:02:38.818Z,63.18
2023-07-18T04:05:41.589Z,63.25
2023-07-18T04:08:44.676Z,62.50
2023-07-18T04:11:47.846Z,62.66
2023-07-18T04:14:51.470Z,62.30
2023-07-18T04:17:54.275Z,63.00
2023-07-18T04:21:03.762Z,63.00
2023-07-18T04:24:10.237Z,63.08
2023-07-18T04:27:13.620Z,63.31
2023-07-18T04:30:16.412Z,62.63
2023-07-18T04:33:19.177Z,62.57
2023-07-18T04:36:22.898Z,62.14
2023-07-18T04:39:26.234Z,62.09
2023-07-18T04:42:29.362Z,62.12
2023-07-18T04:45:32.790Z,61.78
2023-07-18T04:48:36.277Z,60.99
2023-07-18T04:51:39.406Z,60.68
2023-07-18T04:54:44.368Z,60.19
2023-07-18T04:57:48.442Z,60.11
2023-07-18T05:00:51.474Z,59.40
2023-07-18T05:03:58.062Z,59.09
2023-07-18T05:07:01.429Z,58.99
2023-07-18T05:10:04.759Z,59.90
2023-07-18T05:13:08.156Z,59.11
2023-07-18T05:16:13.768Z,58.55
2023-07-18T05:19:16.980Z,58.34
2023-07-18T05:22:19.752Z,57.81
2023-07-18T05:25:23.019Z,57.15
2023-07-18T05:28:25.995Z,57.28
2023-07-18T05:31:31.953Z,56.75
2023-07-18T05:34:34.797Z,57.47
2023-07-18T05:37:41.477Z,56.60
2023-07-18T05:40:44.346Z,56.10
2023-07-18T05:43:47.102Z,57.34
2023-07-18T05:46:49.870Z,57.40
2023-07-18T05:49:52.655Z,56.16
2023-07-18T05:52:55.620Z,56.85
2023-07-18T05:55:58.565Z,56.46
2023-07-18T05:59:01.716Z,55.96
2023-07-18T06:02:05.447Z,56.86
2023-07-18T06:05:09.059Z,56.35
2023-07-18T06:08:12.112Z,56.85
2023-07-18T06:11:18.871Z,57.95
2023-07-18T06:14:22.322Z,57.23
2023-07-18T06:17:25.129Z,57.44
2023-07-18T06:20:28.250Z,58.17
2023-07-18T06:23:31.407Z,56.71
2023-07-18T06:26:34.620Z,56.19
2023-07-18T06:29:37.537Z,56.31
2023-07-18T06:32:41.271Z,56.82
2023-07-18T06:35:52.996Z,56.54
2023-07-18T06:38:55.955Z,56.78
2023-07-18T06:41:59.055Z,56.52
2023-07-18T06:45:01.857Z,56.16
2023-07-18T06:48:05.134Z,55.84
2023-07-18T06:51:16.012Z,56.19
2023-07-18T06:54:20.194Z,55.75
2023-07-18T06:57:23.618Z,52.86
2023-07-18T07:00:26.739Z,53.49
2023-07-18T07:03:31.361Z,52.62
2023-07-18T07:06:34.635Z,51.32
2023-07-18T07:09:37.663Z,50.82
2023-07-18T07:12:40.785Z,50.68
2023-07-18T07:15:43.542Z,50.57
2023-07-18T07:18:50.560Z,49.82
2023-07-18T07:21:53.347Z,49.20
2023-07-18T07:24:56.517Z,49.72
2023-07-18T07:28:00.638Z,49.74
2023-07-18T07:31:06.804Z,48.73
2023-07-18T07:34:09.629Z,48.32
2023-07-18T07:37:12.419Z,48.75
2023-07-18T07:40:16.636Z,48.13
2023-07-18T07:43:20.699Z,46.37
2023-07-18T07:46:24.025Z,45.46
2023-07-18T07:49:27.469Z,43.89
2023-07-18T07:52:30.255Z,42.39
2023-07-18T07:55:33.071Z,43.12
2023-07-18T07:58:38.177Z,43.01
2023-07-18T08:01:41.166Z,42.86
2023-07-18T08:04:44.817Z,42.63
2023-07-18T08:07:48.009Z,43.10
2023-07-18T08:10:50.848Z,41.89
2023-07-18T08:13:54.780Z,42.72
2023-07-18T08:16:57.729Z,41.42
2023-07-18T08:20:01.001Z,42.95
2023-07-18T08:23:04.819Z,41.08
2023-07-18T08:26:08.409Z,39.70
2023-07-18T08:29:11.541Z,41.73
2023-07-18T08:32:14.518Z,42.26
2023-07-18T08:35:17.345Z,41.21
2023-07-18T08:38:20.329Z,42.34
2023-07-18T08:41:23.396Z,42.56
2023-07-18T08:44:26.370Z,42.74
2023-07-18T08:47:29.546Z,41.74
2023-07-18T08:50:34.934Z,41.32
2023-07-18T08:53:40.936Z,39.21
2023-07-18T08:56:46.750Z,40.19
2023-07-18T08:59:50.264Z,40.26
2023-07-18T09:02:53.111Z,40.85
2023-07-18T09:05:56.328Z,40.18
2023-07-18T09:08:59.281Z,38.99
2023-07-18T09:12:05.514Z,40.24
2023-07-18T09:15:09.273Z,38.58
2023-07-18T09:18:14.170Z,38.64
2023-07-18T09:21:18.013Z,39.19
2023-07-18T09:24:33.375Z,36.74
2023-07-18T09:27:39.717Z,37.62
2023-07-18T09:30:42.753Z,38.41
2023-07-18T09:33:47.884Z,39.41
2023-07-18T09:37:02.593Z,38.54
2023-07-18T09:40:08.382Z,38.08
2023-07-18T09:43:13.018Z,39.32
2023-07-18T09:46:17.084Z,37.95
2023-07-18T09:49:24.719Z,36.11
2023-07-18T09:52:29.432Z,35.78
2023-07-18T09:55:35.618Z,35.68
2023-07-18T09:58:40.592Z,35.78
2023-07-18T10:01:44.488Z,35.96
2023-07-18T10:04:49.459Z,35.93
2023-07-18T10:07:53.240Z,35.90
2023-07-18T10:11:09.174Z,36.76
2023-07-18T10:14:13.600Z,37.49
2023-07-18T10:17:30.700Z,37.78
2023-07-18T10:20:36.393Z,36.34
2023-07-18T10:23:42.520Z,37.05
2023-07-18T10:26:59.134Z,36.19
2023-07-18T10:30:05.538Z,36.67
2023-07-18T10:33:20.472Z,35.68
2023-07-18T10:36:26.735Z,35.54
2023-07-18T10:39:40.739Z,34.75
2023-07-18T10:42:44.997Z,34.47
2023-07-18T10:45:50.541Z,33.87
2023-07-18T10:48:53.995Z,34.23
2023-07-18T10:51:57.276Z,34.01
2023-07-18T10:55:01.940Z,34.57
2023-07-18T10:58:11.291Z,33.18
2023-07-18T11:01:14.179Z,34.27
2023-07-18T11:04:17.539Z,34.65
2023-07-18T11:07:37.113Z,33.87
2023-07-18T11:10:41.480Z,34.98
2023-07-18T11:13:44.810Z,34.03
2023-07-18T11:16:48.704Z,34.85
2023-07-18T11:19:51.499Z,33.03
2023-07-18T11:22:54.684Z,32.68
2023-07-18T11:25:58.611Z,33.40
2023-07-18T11:29:02.695Z,33.79
2023-07-18T11:32:06.027Z,33.85
2023-07-18T11:35:19.357Z,33.88
2023-07-18T11:38:25.622Z,34.78
2023-07-18T11:41:36.326Z,35.11
2023-07-18T11:44:43.718Z,34.75
2023-07-18T11:47:49.204Z,34.27
2023-07-18T11:50:52.461Z,33.64
2023-07-18T11:53:55.673Z,33.66
2023-07-18T11:56:58.758Z,34.04
2023-07-18T12:00:02.336Z,33.45
2023-07-18T12:03:15.666Z,33.30
2023-07-18T12:06:20.738Z,33.03
2023-07-18T12:09:24.108Z,33.59
2023-07-18T12:12:27.404Z,31.88
2023-07-18T12:15:30.675Z,31.55
2023-07-18T12:18:34.292Z,31.60
2023-07-18T12:21:37.772Z,32.98
2023-07-18T12:24:40.772Z,33.06
2023-07-18T12:27:46.845Z,32.66
2023-07-18T12:30:49.664Z,32.48
2023-07-18T12:33:53.243Z,32.05
2023-07-18T12:36:56.272Z,31.68
2023-07-18T12:39:59.035Z,32.58
2023-07-18T12:43:01.864Z,31.97
2023-07-18T12:46:07.692Z,33.89
2023-07-18T12:49:10.847Z,32.11
2023-07-18T12:52:14.218Z,32.85
2023-07-18T12:55:17.691Z,31.94
2023-07-18T12:58:20.490Z,34.02
2023-07-18T13:01:24.057Z,31.96
2023-07-18T13:04:26.829Z,33.17
2023-07-18T13:07:29.938Z,32.19
2023-07-18T13:10:32.837Z,32.78
2023-07-18T13:13:35.986Z,32.37
2023-07-18T13:16:40.548Z,32.75
2023-07-18T13:19:43.545Z,31.93
2023-07-18T13:22:47.587Z,31.31
2023-07-18T13:25:50.604Z,31.81
2023-07-18T13:28:53.504Z,31.64
2023-07-18T13:31:56.385Z,31.64
2023-07-18T13:34:59.829Z,31.04
2023-07-18T13:38:02.878Z,32.15
2023-07-18T13:41:09.288Z,30.59
2023-07-18T13:44:12.314Z,31.24
2023-07-18T13:47:17.382Z,31.23
2023-07-18T13:50:31.475Z,31.19
2023-07-18T13:53:35.339Z,30.03
2023-07-18T13:56:38.558Z,29.80
2023-07-18T13:59:46.452Z,28.81
2023-07-18T14:02:50.880Z,28.38
2023-07-18T14:05:59.739Z,28.31
2023-07-18T14:09:02.846Z,28.48
2023-07-18T14:12:06.634Z,28.06
2023-07-18T14:15:10.084Z,27.24
2023-07-18T14:18:13.434Z,27.47
2023-07-18T14:21:16.645Z,27.52
2023-07-18T14:24:21.015Z,28.39
2023-07-18T14:27:23.934Z,27.12
2023-07-18T14:30:26.729Z,27.22
2023-07-18T14:33:29.812Z,27.31
2023-07-18T14:36:32.584Z,27.05
2023-07-18T14:39:40.783Z,26.07
2023-07-18T14:42:44.477Z,26.64
2023-07-18T14:45:47.356Z,27.31
2023-07-18T14:48:50.444Z,26.75
2023-07-18T14:51:53.297Z,27.17
2023-07-18T14:54:58.282Z,28.22
2023-07-18T14:58:01.753Z,27.70
2023-07-18T15:01:06.462Z,27.90
2023-07-18T15:04:09.524Z,28.35
2023-07-18T15:07:12.407Z,26.85
2023-07-18T15:10:15.633Z,27.98
2023-07-18T15:13:18.398Z,27.51
2023-07-18T15:16:21.663Z,27.49
2023-07-18T15:19:27.759Z,28.87
2023-07-18T15:22:30.674Z,27.39
2023-07-18T15:25:34.675Z,27.50
2023-07-18T15:28:42.894Z,28.28
2023-07-18T15:31:45.768Z,30.21
2023-07-18T15:34:48.601Z,28.25
2023-07-18T15:37:51.437Z,26.73
2023-07-18T15:40:54.181Z,26.92
2023-07-18T15:43:57.733Z,27.63
2023-07-18T15:47:01.065Z,28.59
2023-07-18T15:50:04.173Z,27.96
2023-07-18T15:53:07.033Z,26.97
2023-07-18T15:56:15.525Z,26.93
2023-07-18T15:59:19.775Z,26.27
2023-07-18T16:02:23.236Z,25.67
2023-07-18T16:05:28.983Z,25.00
2023-07-18T16:08:34.861Z,24.82
2023-07-18T16:11:39.382Z,25.24
2023-07-18T16:14:42.489Z,25.76
2023-07-18T16:17:45.667Z,26.10
2023-07-18T16:20:49.196Z,24.63
2023-07-18T16:23:53.133Z,28.41
2023-07-18T16:26:55.939Z,28.50
2023-07-18T16:30:01.898Z,29.09
2023-07-18T16:33:05.079Z,27.88
2023-07-18T16:36:08.152Z,27.68
2023-07-18T16:42:29.636Z,27.01
2023-07-18T16:45:33.243Z,26.59
2023-07-18T16:48:36.921Z,27.02
2023-07-18T16:51:39.919Z,28.18
2023-07-18T16:54:42.928Z,28.81
2023-07-18T16:57:47.492Z,29.32
2023-07-18T17:00:50.655Z,30.14
2023-07-18T17:03:58.552Z,30.23
2023-07-18T17:07:01.368Z,31.24
2023-07-18T17:10:05.731Z,32.11
2023-07-18T17:13:09.658Z,31.45
2023-07-18T17:16:15.299Z,31.83
2023-07-18T17:19:18.103Z,32.45
2023-07-18T17:22:20.867Z,34.03
2023-07-18T17:25:25.068Z,34.85
2023-07-18T17:28:29.920Z,36.01
2023-07-18T17:31:32.976Z,36.47
2023-07-18T17:34:36.867Z,37.03
2023-07-18T17:37:41.456Z,37.38
2023-07-18T17:40:44.448Z,38.18
2023-07-18T17:43:47.159Z,38.50
2023-07-18T17:46:51.103Z,39.34
2023-07-18T17:49:53.874Z,39.71
2023-07-18T17:52:57.757Z,39.66
2023-07-18T17:56:02.007Z,39.67
2023-07-18T17:59:11.195Z,39.54
2023-07-18T18:02:14.349Z,39.58
2023-07-18T18:05:49.195Z,41.95
2023-07-18T18:08:52.002Z,42.70
2023-07-18T18:11:57.266Z,43.99
2023-07-18T18:15:03.927Z,44.78
2023-07-18T18:18:06.894Z,44.99
2023-07-18T18:21:10.111Z,43.53
2023-07-18T18:24:13.187Z,43.77
2023-07-18T18:27:16.407Z,44.84
2023-07-18T18:30:19.581Z,44.50
2023-07-18T18:33:23.405Z,46.53
2023-07-18T18:36:28.234Z,48.30
2023-07-18T18:39:31.517Z,49.38
2023-07-18T18:42:34.990Z,49.14
2023-07-18T18:45:38.493Z,49.17
2023-07-18T18:48:41.756Z,49.12
2023-07-18T18:51:45.299Z,49.36
2023-07-18T18:54:48.632Z,49.43
2023-07-18T18:57:52.381Z,49.14
2023-07-18T19:00:58.340Z,49.35
2023-07-18T19:04:01.294Z,49.28
2023-07-18T19:07:05.098Z,49.31
2023-07-18T19:10:13.921Z,49.24
2023-07-18T19:13:16.754Z,49.14
2023-07-18T19:16:32.901Z,50.05
2023-07-18T19:19:44.430Z,51.10
2023-07-18T19:22:49.986Z,51.49
2023-07-18T19:25:52.836Z,51.06
2023-07-18T19:28:55.672Z,51.92
2023-07-18T19:31:58.620Z,53.13
2023-07-18T19:35:04.418Z,53.78
2023-07-18T19:38:07.419Z,54.98
2023-07-18T19:41:10.170Z,55.32
2023-07-18T19:44:14.893Z,55.36
2023-07-18T19:47:17.918Z,55.55
2023-07-18T19:50:21.449Z,54.45
2023-07-18T19:53:25.908Z,54.32
2023-07-18T19:56:28.758Z,53.73
2023-07-18T19:59:32.333Z,53.42
2023-07-18T20:02:35.480Z,53.69
2023-07-18T20:05:38.918Z,53.20
2023-07-18T20:08:42.202Z,54.06
2023-07-18T20:11:45.000Z,54.23
2023-07-18T20:14:48.528Z,53.58
2023-07-18T20:17:51.846Z,54.16
2023-07-18T20:20:54.901Z,53.33
2023-07-18T20:23:58.302Z,53.64
2023-07-18T20:27:01.882Z,53.55
2023-07-18T20:30:09.546Z,52.21
2023-07-18T20:33:12.270Z,51.87
2023-07-18T20:36:21.014Z,51.87
2023-07-18T20:39:27.585Z,49.87
2023-07-18T20:42:34.679Z,50.50
2023-07-18T20:45:38.213Z,51.71
2023-07-18T20:48:41.063Z,50.41
2023-07-18T20:51:43.893Z,52.04
2023-07-18T20:54:46.758Z,53.26
2023-07-18T20:57:49.742Z,52.19
2023-07-18T21:00:52.604Z,50.95
2023-07-18T21:03:55.381Z,54.08
2023-07-18T21:06:59.358Z,54.25
2023-07-18T21:10:02.190Z,55.46
2023-07-18T21:13:06.732Z,56.30
2023-07-18T21:16:12.947Z,54.54
2023-07-18T21:19:15.828Z,51.97
2023-07-18T21:22:18.618Z,47.87
2023-07-18T21:25:21.588Z,48.86
2023-07-18T21:28:24.417Z,47.01
2023-07-18T21:31:27.177Z,46.67
2023-07-18T21:34:30.621Z,47.13
2023-07-18T21:37:33.338Z,47.01
2023-07-18T21:40:36.168Z,46.11
2023-07-18T21:43:39.120Z,45.44
2023-07-18T21:46:41.983Z,45.30
2023-07-18T21:49:45.464Z,44.03
2023-07-18T21:52:48.317Z,43.90
2023-07-18T21:55:51.074Z,43.22
2023-07-18T21:58:54.805Z,43.37
2023-07-18T22:01:58.425Z,43.29
2023-07-18T22:05:11.607Z,43.26
2023-07-18T22:08:14.433Z,43.10
2023-07-18T22:11:17.460Z,44.35
2023-07-18T22:14:20.781Z,44.97
2023-07-18T22:17:23.695Z,45.97
2023-07-18T22:20:26.449Z,46.78
2023-07-18T22:23:30.350Z,46.49
2023-07-18T22:26:33.175Z,47.11
2023-07-18T22:29:36.171Z,47.21
2023-07-18T22:32:38.999Z,47.45
2023-07-18T22:35:45.515Z,48.17
2023-07-18T22:38:48.684Z,48.36
2023-07-18T22:41:53.191Z,48.26
2023-07-18T22:44:56.258Z,48.47
2023-07-18T22:48:00.218Z,49.01
2023-07-18T22:51:03.256Z,49.37
2023-07-18T22:54:06.130Z,50.02
2023-07-18T22:57:09.402Z,49.93
2023-07-18T23:00:13.818Z,51.27
2023-07-18T23:03:16.786Z,52.01
2023-07-18T23:06:19.864Z,52.37
2023-07-18T23:09:22.949Z,52.34
2023-07-18T23:12:25.668Z,52.22
2023-07-18T23:15:30.205Z,52.12
2023-07-18T23:18:33.027Z,52.49
2023-07-18T23:21:36.175Z,52.05
2023-07-18T23:24:41.073Z,52.62
2023-07-18T23:27:44.342Z,51.79
2023-07-18T23:30:47.140Z,52.65
2023-07-18T23:33:49.950Z,52.85
2023-07-18T23:36:54.094Z,52.42
2023-07-18T23:39:57.649Z,52.26
2023-07-18T23:43:00.751Z,52.97
2023-07-18T23:46:04.667Z,51.10
2023-07-18T23:49:07.676Z,50.68
2023-07-18T23:52:10.768Z,51.96
2023-07-18T23:55:13.729Z,51.61
2023-07-18T23:58:17.204Z,52.19
